createdAt,value
2019-03-17T00:00:49.380Z,1.20
2019-03-17T00:03:18.415Z,0.90
2019-03-17T00:05:47.130Z,0.87
2019-03-17T00:08:15.999Z,1.57
2019-03-17T00:10:44.668Z,1.02
2019-03-17T00:13:13.303Z,1.35
2019-03-17T00:15:41.927Z,1.03
2019-03-17T00:18:11.139Z,1.15
2019-03-17T00:20:39.864Z,0.70
2019-03-17T00:23:08.478Z,0.95
2019-03-17T00:25:37.111Z,1.27
2019-03-17T00:28:05.894Z,0.68
2019-03-17T00:30:34.584Z,0.53
2019-03-17T00:33:03.190Z,1.20
2019-03-17T00:35:31.823Z,1.27
2019-03-17T00:38:00.511Z,1.00
2019-03-17T00:40:29.131Z,0.62
2019-03-17T00:42:58.003Z,1.00
2019-03-17T00:45:26.612Z,1.07
2019-03-17T00:47:55.363Z,1.20
2019-03-17T00:50:23.983Z,0.85
2019-03-17T00:52:52.591Z,0.83
2019-03-17T00:55:21.218Z,0.90
2019-03-17T00:57:49.879Z,1.15
2019-03-17T01:00:19.223Z,1.55
2019-03-17T01:02:47.850Z,1.00
2019-03-17T01:05:16.522Z,1.10
2019-03-17T01:07:45.474Z,0.88
2019-03-17T01:10:15.164Z,0.68
2019-03-17T01:12:45.098Z,0.62
2019-03-17T01:15:13.899Z,1.33
2019-03-17T01:17:42.619Z,0.80
2019-03-17T01:20:11.447Z,1.02
2019-03-17T01:22:40.143Z,1.07
2019-03-17T01:25:08.994Z,0.73
2019-03-17T01:27:38.119Z,0.68
2019-03-17T01:30:06.798Z,1.30
2019-03-17T01:32:35.435Z,1.10
2019-03-17T01:35:09.181Z,1.03
2019-03-17T01:37:34.635Z,1.10
2019-03-17T01:40:04.061Z,0.90
2019-03-17T01:42:33.738Z,1.42
2019-03-17T01:45:02.425Z,1.07
2019-03-17T01:47:31.065Z,1.00
2019-03-17T01:49:59.679Z,1.17
2019-03-17T01:52:28.432Z,1.40
2019-03-17T01:54:57.068Z,1.10
2019-03-17T01:57:25.683Z,1.00
2019-03-17T01:59:54.307Z,1.43
2019-03-17T02:02:22.931Z,1.07
2019-03-17T02:04:51.906Z,0.88
2019-03-17T02:07:20.531Z,1.03
2019-03-17T02:09:49.139Z,1.37
2019-03-17T02:12:17.765Z,1.12
2019-03-17T02:14:46.415Z,0.70
2019-03-17T02:17:15.024Z,0.60
2019-03-17T02:19:43.717Z,1.35
2019-03-17T02:22:12.260Z,0.98
2019-03-17T02:24:40.907Z,1.37
2019-03-17T02:27:09.603Z,1.62
2019-03-17T02:29:38.226Z,1.27
2019-03-17T02:32:06.904Z,1.27
2019-03-17T02:34:35.513Z,1.20
2019-03-17T02:37:04.428Z,1.22
2019-03-17T02:39:33.128Z,1.30
2019-03-17T02:42:01.740Z,1.00
2019-03-17T02:44:30.362Z,1.13
2019-03-17T02:46:59.000Z,1.10
2019-03-17T02:49:27.625Z,0.68
2019-03-17T02:51:56.311Z,1.05
2019-03-17T02:54:24.957Z,1.82
2019-03-17T02:56:53.563Z,1.17
2019-03-17T02:59:23.516Z,0.98
2019-03-17T03:01:52.203Z,0.90
2019-03-17T03:04:20.975Z,0.97
2019-03-17T03:06:49.724Z,1.00
2019-03-17T03:09:18.333Z,0.87
2019-03-17T03:11:46.940Z,0.90
2019-03-17T03:14:15.578Z,1.00
2019-03-17T03:16:44.198Z,1.00
2019-03-17T03:19:13.004Z,1.33
2019-03-17T03:21:41.623Z,1.10
2019-03-17T03:24:10.240Z,1.70
2019-03-17T03:26:40.061Z,1.75
2019-03-17T03:29:08.674Z,0.90
2019-03-17T03:31:37.365Z,0.77
2019-03-17T03:34:06.009Z,0.73
2019-03-17T03:36:34.611Z,0.97
2019-03-17T03:39:04.388Z,0.70
2019-03-17T03:41:33.731Z,1.17
2019-03-17T03:44:02.448Z,1.10
2019-03-17T03:46:31.055Z,1.00
2019-03-17T03:48:59.669Z,1.10
2019-03-17T03:51:28.291Z,1.12
2019-03-17T03:53:56.922Z,1.10
2019-03-17T03:56:25.543Z,1.12
2019-03-17T03:58:54.202Z,1.40
2019-03-17T04:01:22.821Z,0.62
2019-03-17T04:03:51.437Z,0.77
2019-03-17T04:06:26.312Z,0.87
2019-03-17T04:08:50.592Z,0.60
2019-03-17T04:11:19.315Z,1.13
2019-03-17T04:13:47.982Z,1.40
2019-03-17T04:16:16.528Z,0.73
2019-03-17T04:18:45.148Z,0.63
2019-03-17T04:21:13.802Z,0.75
2019-03-17T04:23:42.423Z,0.83
2019-03-17T04:26:11.035Z,1.23
2019-03-17T04:28:39.660Z,0.67
2019-03-17T04:31:08.268Z,0.77
2019-03-17T04:33:36.907Z,0.80
2019-03-17T04:36:05.519Z,0.50
2019-03-17T04:38:34.155Z,0.70
2019-03-17T04:41:02.791Z,0.80
2019-03-17T04:43:31.399Z,0.60
2019-03-17T04:46:01.287Z,0.85
2019-03-17T04:48:29.927Z,0.75
2019-03-17T04:50:58.545Z,0.60
2019-03-17T04:53:27.169Z,0.68
2019-03-17T04:55:55.900Z,0.68
2019-03-17T04:58:24.509Z,0.60
2019-03-17T05:00:53.146Z,0.70
2019-03-17T05:03:21.782Z,0.43
2019-03-17T05:05:50.407Z,0.72
2019-03-17T05:08:19.248Z,1.00
2019-03-17T05:10:47.887Z,0.60
2019-03-17T05:13:16.506Z,0.60
2019-03-17T05:15:45.128Z,0.33
2019-03-17T05:18:13.750Z,0.67
2019-03-17T05:20:42.359Z,1.23
2019-03-17T05:23:10.989Z,0.55
2019-03-17T05:25:39.595Z,0.60
2019-03-17T05:28:08.211Z,0.67
2019-03-17T05:30:36.876Z,0.60
2019-03-17T05:33:05.491Z,0.53
2019-03-17T05:35:34.135Z,0.65
2019-03-17T05:38:03.719Z,0.90
2019-03-17T05:40:32.683Z,0.60
2019-03-17T05:43:01.292Z,0.93
2019-03-17T05:45:29.934Z,0.90
2019-03-17T05:47:58.539Z,0.40
2019-03-17T05:50:27.154Z,0.70
2019-03-17T05:52:55.873Z,0.78
2019-03-17T05:55:24.499Z,0.60
2019-03-17T05:57:53.122Z,0.47
2019-03-17T06:00:21.779Z,1.00
2019-03-17T06:02:50.400Z,0.33
2019-03-17T06:05:19.432Z,1.00
2019-03-17T06:07:48.076Z,0.60
2019-03-17T06:10:16.688Z,0.60
2019-03-17T06:12:45.304Z,0.63
2019-03-17T06:15:14.029Z,0.30
2019-03-17T06:17:42.655Z,1.00
2019-03-17T06:20:11.402Z,0.60
2019-03-17T06:22:40.007Z,0.90
2019-03-17T06:25:08.659Z,0.30
2019-03-17T06:27:37.274Z,0.55
2019-03-17T06:30:05.908Z,0.57
2019-03-17T06:32:34.531Z,0.93
2019-03-17T06:35:03.356Z,0.60
2019-03-17T06:37:32.002Z,0.57
2019-03-17T06:40:00.611Z,1.35
2019-03-17T06:42:29.234Z,1.13
2019-03-17T06:44:57.859Z,0.55
2019-03-17T06:47:26.585Z,0.70
2019-03-17T06:49:55.204Z,0.77
2019-03-17T06:52:23.803Z,0.60
2019-03-17T06:54:52.489Z,0.73
2019-03-17T06:57:21.178Z,0.50
2019-03-17T06:59:49.818Z,0.77
2019-03-17T07:02:18.803Z,0.33
2019-03-17T07:04:47.411Z,1.23
2019-03-17T07:07:16.057Z,1.10
2019-03-17T07:09:44.656Z,0.90
2019-03-17T07:12:13.303Z,0.60
2019-03-17T07:14:41.922Z,0.98
2019-03-17T07:17:10.536Z,0.60
2019-03-17T07:19:39.285Z,0.23
2019-03-17T07:22:07.869Z,0.57
2019-03-17T07:24:36.486Z,0.68
2019-03-17T07:27:05.247Z,1.12
2019-03-17T07:29:33.850Z,1.13
2019-03-17T07:32:03.855Z,1.10
2019-03-17T07:34:32.554Z,0.70
2019-03-17T07:37:01.220Z,0.90
2019-03-17T07:39:29.829Z,1.67
2019-03-17T07:41:58.446Z,0.95
2019-03-17T07:44:27.122Z,1.10
2019-03-17T07:46:55.747Z,1.23
2019-03-17T07:49:24.467Z,1.37
2019-03-17T07:51:53.148Z,1.62
2019-03-17T07:54:21.771Z,1.10
2019-03-17T07:56:50.390Z,1.37
2019-03-17T07:59:19.035Z,1.60
2019-03-17T08:01:47.656Z,1.10
2019-03-17T08:04:16.315Z,2.23
2019-03-17T08:06:44.927Z,1.87
2019-03-17T08:09:13.568Z,4.07
2019-03-17T08:11:42.195Z,1.27
2019-03-17T08:14:10.852Z,3.40
2019-03-17T08:16:39.461Z,2.87
2019-03-17T08:19:09.694Z,1.97
2019-03-17T08:21:38.599Z,3.03
2019-03-17T08:24:07.230Z,1.83
2019-03-17T08:26:35.835Z,3.30
2019-03-17T08:29:04.451Z,3.42
2019-03-17T08:31:33.091Z,3.77
2019-03-17T08:34:01.706Z,2.47
2019-03-17T08:36:30.332Z,2.08
2019-03-17T08:38:58.984Z,3.47
2019-03-17T08:41:27.603Z,1.93
2019-03-17T08:43:56.309Z,2.52
2019-03-17T08:46:25.011Z,2.47
2019-03-17T08:48:53.732Z,2.58
2019-03-17T08:51:23.021Z,1.72
2019-03-17T08:53:51.671Z,2.63
2019-03-17T08:56:20.332Z,1.87
2019-03-17T08:58:50.049Z,2.87
2019-03-17T09:01:18.663Z,1.93
2019-03-17T09:03:47.291Z,2.43
2019-03-17T09:06:15.911Z,2.80
2019-03-17T09:08:44.527Z,1.83
2019-03-17T09:11:13.147Z,2.10
2019-03-17T09:13:41.755Z,2.23
2019-03-17T09:16:10.727Z,1.33
2019-03-17T09:18:39.407Z,2.50
2019-03-17T09:21:09.102Z,2.83
2019-03-17T09:23:37.733Z,1.95
2019-03-17T09:26:06.428Z,1.50
2019-03-17T09:28:35.034Z,1.73
2019-03-17T09:31:07.165Z,1.40
2019-03-17T09:33:33.895Z,2.77
2019-03-17T09:36:02.589Z,1.50
2019-03-17T09:38:31.226Z,1.62
2019-03-17T09:40:59.844Z,3.13
2019-03-17T09:43:28.447Z,2.10
2019-03-17T09:45:57.163Z,3.00
2019-03-17T09:48:25.771Z,1.97
2019-03-17T09:50:54.381Z,1.92
2019-03-17T09:53:23.002Z,1.62
2019-03-17T09:55:51.611Z,1.05
2019-03-17T09:58:20.258Z,1.53
2019-03-17T10:00:48.927Z,1.32
2019-03-17T10:03:17.543Z,1.45
2019-03-17T10:05:46.172Z,1.43
2019-03-17T10:08:14.784Z,2.00
2019-03-17T10:10:43.531Z,1.50
2019-03-17T10:13:12.234Z,0.60
2019-03-17T10:15:40.860Z,1.23
2019-03-17T10:18:09.515Z,0.70
2019-03-17T10:20:38.131Z,1.32
2019-03-17T10:23:06.752Z,1.50
2019-03-17T10:25:35.390Z,0.60
2019-03-17T10:28:04.015Z,1.30
2019-03-17T10:30:32.634Z,1.25
2019-03-17T10:33:01.351Z,1.33
2019-03-17T10:35:29.967Z,1.37
2019-03-17T10:37:59.079Z,1.10
2019-03-17T10:40:27.719Z,1.30
2019-03-17T10:42:56.348Z,1.23
2019-03-17T10:45:24.979Z,1.00
2019-03-17T10:47:54.662Z,1.30
2019-03-17T10:50:23.419Z,1.50
2019-03-17T10:52:52.047Z,1.30
2019-03-17T10:55:20.693Z,1.30
2019-03-17T10:57:49.698Z,0.78
2019-03-17T11:00:18.336Z,1.10
2019-03-17T11:02:47.012Z,1.00
2019-03-17T11:05:15.798Z,0.87
2019-03-17T11:07:44.414Z,0.90
2019-03-17T11:10:13.452Z,0.93
2019-03-17T11:12:42.212Z,1.40
2019-03-17T11:15:11.655Z,0.53
2019-03-17T11:17:40.305Z,0.70
2019-03-17T11:20:09.724Z,1.00
2019-03-17T11:22:38.339Z,0.30
2019-03-17T11:25:07.133Z,0.80
2019-03-17T11:27:35.835Z,0.80
2019-03-17T11:30:05.319Z,0.98
2019-03-17T11:32:33.976Z,0.60
2019-03-17T11:35:02.589Z,0.70
2019-03-17T11:37:31.235Z,0.97
2019-03-17T11:39:59.855Z,1.07
2019-03-17T11:42:29.056Z,0.93
2019-03-17T11:44:57.683Z,0.98
2019-03-17T11:47:26.283Z,0.73
2019-03-17T11:49:54.928Z,0.90
2019-03-17T11:52:23.542Z,1.02
2019-03-17T11:54:52.151Z,1.20
2019-03-17T11:57:20.971Z,0.97
2019-03-17T11:59:49.584Z,0.70
2019-03-17T12:02:26.402Z,0.50
2019-03-17T12:04:49.586Z,0.80
2019-03-17T12:07:18.124Z,0.47
2019-03-17T12:09:50.324Z,0.68
2019-03-17T12:12:17.111Z,0.47
2019-03-17T12:14:45.667Z,1.00
2019-03-17T12:17:14.279Z,1.00
2019-03-17T12:19:42.928Z,0.70
2019-03-17T12:22:11.607Z,1.20
2019-03-17T12:24:41.379Z,0.70
2019-03-17T12:27:11.073Z,0.40
2019-03-17T12:29:39.784Z,0.60
2019-03-17T12:32:08.865Z,0.80
2019-03-17T12:34:37.487Z,0.73
2019-03-17T12:37:06.115Z,0.60
2019-03-17T12:39:34.755Z,0.80
2019-03-17T12:42:03.363Z,0.60
2019-03-17T12:44:31.987Z,1.00
2019-03-17T12:47:00.611Z,0.50
2019-03-17T12:49:29.246Z,1.00
2019-03-17T12:51:57.984Z,0.53
2019-03-17T12:54:26.643Z,0.77
2019-03-17T12:56:55.336Z,0.60
2019-03-17T12:59:23.973Z,1.17
2019-03-17T13:01:52.581Z,0.80
2019-03-17T13:04:21.307Z,0.95
2019-03-17T13:06:49.912Z,1.00
2019-03-17T13:09:18.513Z,0.90
2019-03-17T13:11:47.190Z,1.10
2019-03-17T13:14:15.799Z,0.60
2019-03-17T13:16:44.415Z,1.47
2019-03-17T13:19:13.230Z,0.90
2019-03-17T13:21:41.847Z,0.70
2019-03-17T13:24:10.483Z,0.70
2019-03-17T13:26:39.121Z,0.70
2019-03-17T13:29:07.746Z,0.68
2019-03-17T13:31:36.392Z,0.88
2019-03-17T13:34:05.024Z,0.60
2019-03-17T13:36:33.650Z,0.70
2019-03-17T13:39:02.295Z,0.90
2019-03-17T13:41:32.080Z,0.60
2019-03-17T13:44:00.704Z,0.57
2019-03-17T13:46:29.340Z,0.77
2019-03-17T13:48:58.446Z,0.60
2019-03-17T13:51:27.117Z,0.65
2019-03-17T13:53:55.808Z,0.63
2019-03-17T13:56:24.411Z,0.73
2019-03-17T13:58:53.039Z,0.30
2019-03-17T14:01:21.667Z,0.35
2019-03-17T14:03:50.278Z,0.35
2019-03-17T14:06:19.090Z,0.63
2019-03-17T14:08:47.718Z,0.50
2019-03-17T14:11:16.337Z,0.40
2019-03-17T14:13:44.955Z,0.60
2019-03-17T14:16:15.726Z,0.50
2019-03-17T14:18:43.815Z,0.50
2019-03-17T14:21:12.491Z,0.50
2019-03-17T14:23:41.192Z,0.67
2019-03-17T14:26:09.924Z,0.30
2019-03-17T14:28:38.935Z,0.50
2019-03-17T14:31:07.547Z,0.50
2019-03-17T14:33:36.199Z,0.30
2019-03-17T14:36:04.819Z,0.50
2019-03-17T14:38:34.557Z,0.40
2019-03-17T14:41:04.139Z,0.68
2019-03-17T14:43:32.996Z,0.30
2019-03-17T14:46:01.623Z,0.40
2019-03-17T14:48:30.254Z,0.40
2019-03-17T14:50:58.879Z,0.37
2019-03-17T14:53:27.944Z,0.50
2019-03-17T14:55:56.595Z,0.87
2019-03-17T14:58:25.198Z,0.70
2019-03-17T15:00:53.898Z,0.63
2019-03-17T15:03:22.635Z,1.07
2019-03-17T15:05:51.258Z,0.43
2019-03-17T15:08:19.879Z,0.50
2019-03-17T15:10:49.047Z,0.53
2019-03-17T15:13:17.653Z,0.70
2019-03-17T15:15:46.294Z,0.50
2019-03-17T15:18:14.905Z,0.50
2019-03-17T15:20:43.523Z,0.47
2019-03-17T15:23:12.255Z,0.42
2019-03-17T15:25:41.163Z,0.42
2019-03-17T15:28:09.806Z,0.57
2019-03-17T15:30:38.431Z,0.50
2019-03-17T15:33:07.111Z,0.30
2019-03-17T15:35:36.443Z,0.40
2019-03-17T15:38:05.055Z,0.25
2019-03-17T15:40:33.672Z,0.40
2019-03-17T15:43:02.301Z,0.42
2019-03-17T15:45:30.969Z,0.30
2019-03-17T15:47:59.703Z,0.40
2019-03-17T15:50:28.318Z,0.40
2019-03-17T15:52:56.974Z,0.50
2019-03-17T15:55:25.591Z,0.33
2019-03-17T15:57:54.202Z,0.70
2019-03-17T16:00:25.874Z,0.20
2019-03-17T16:02:53.412Z,0.55
2019-03-17T16:05:22.143Z,0.10
2019-03-17T16:07:50.771Z,0.25
2019-03-17T16:10:19.795Z,0.30
2019-03-17T16:12:48.459Z,0.20
2019-03-17T16:15:17.076Z,0.60
2019-03-17T16:17:45.703Z,0.30
2019-03-17T16:20:15.155Z,0.20
2019-03-17T16:22:43.799Z,0.30
2019-03-17T16:25:12.682Z,0.40
2019-03-17T16:27:42.987Z,0.20
2019-03-17T16:30:13.519Z,0.40
2019-03-17T16:32:42.295Z,0.30
2019-03-17T16:35:11.003Z,0.25
2019-03-17T16:37:39.635Z,0.40
2019-03-17T16:40:09.057Z,0.40
2019-03-17T16:42:38.683Z,0.20
2019-03-17T16:45:07.358Z,0.27
2019-03-17T16:47:35.978Z,0.53
2019-03-17T16:50:05.835Z,0.50
2019-03-17T16:52:34.469Z,0.15
2019-03-17T16:55:03.167Z,0.40
2019-03-17T16:57:32.095Z,0.20
2019-03-17T17:00:00.743Z,0.40
2019-03-17T17:02:29.547Z,0.20
2019-03-17T17:04:58.666Z,0.53
2019-03-17T17:07:27.368Z,0.47
2019-03-17T17:09:55.991Z,0.40
2019-03-17T17:12:25.007Z,0.42
2019-03-17T17:14:53.663Z,0.37
2019-03-17T17:17:22.291Z,0.37
2019-03-17T17:19:50.911Z,0.37
2019-03-17T17:22:19.645Z,0.60
2019-03-17T17:24:48.280Z,0.30
2019-03-17T17:27:16.898Z,0.30
2019-03-17T17:29:45.570Z,0.50
2019-03-17T17:32:14.585Z,0.10
2019-03-17T17:34:43.350Z,0.37
2019-03-17T17:37:12.107Z,0.50
2019-03-17T17:39:41.788Z,0.33
2019-03-17T17:42:11.843Z,0.30
2019-03-17T17:44:40.655Z,0.20
2019-03-17T17:47:09.352Z,0.10
2019-03-17T17:49:37.967Z,0.25
2019-03-17T17:52:06.628Z,0.33
2019-03-17T17:54:35.843Z,0.50
2019-03-17T17:57:04.467Z,0.30
2019-03-17T17:59:33.099Z,0.30
2019-03-17T18:02:01.803Z,0.50
2019-03-17T18:04:30.508Z,0.30
2019-03-17T18:06:59.164Z,0.10
2019-03-17T18:09:27.778Z,0.75
2019-03-17T18:11:56.422Z,0.43
2019-03-17T18:14:25.027Z,0.33
2019-03-17T18:16:53.671Z,0.20
2019-03-17T18:19:22.291Z,0.20
2019-03-17T18:21:50.911Z,0.40
2019-03-17T18:24:27.891Z,0.63
2019-03-17T18:26:56.509Z,0.40
2019-03-17T18:29:25.119Z,0.40
2019-03-17T18:31:53.740Z,0.60
2019-03-17T18:34:22.343Z,0.45
2019-03-17T18:36:51.032Z,1.07
2019-03-17T18:39:20.755Z,0.90
2019-03-17T18:41:49.371Z,0.33
2019-03-17T18:44:18.659Z,1.00
2019-03-17T18:46:47.968Z,0.45
2019-03-17T18:49:16.590Z,0.75
2019-03-17T18:51:45.223Z,0.87
2019-03-17T18:54:13.871Z,0.70
2019-03-17T18:56:43.123Z,0.30
2019-03-17T18:59:11.739Z,1.22
2019-03-17T19:01:40.354Z,1.20
2019-03-17T19:04:08.983Z,0.93
2019-03-17T19:06:38.309Z,0.65
2019-03-17T19:09:07.799Z,0.50
2019-03-17T19:11:36.419Z,0.73
2019-03-17T19:14:05.068Z,0.40
2019-03-17T19:16:33.940Z,0.62
2019-03-17T19:19:02.651Z,0.70
2019-03-17T19:21:31.289Z,0.30
2019-03-17T19:23:59.923Z,0.28
2019-03-17T19:26:28.615Z,0.67
2019-03-17T19:28:57.268Z,0.20
2019-03-17T19:31:25.878Z,0.40
2019-03-17T19:33:54.500Z,0.30
2019-03-17T19:36:23.139Z,0.37
2019-03-17T19:38:51.775Z,0.73
2019-03-17T19:41:20.425Z,0.70
2019-03-17T19:43:49.048Z,0.30
2019-03-17T19:46:18.746Z,0.30
2019-03-17T19:48:47.833Z,0.40
2019-03-17T19:51:18.920Z,0.70
2019-03-17T19:53:46.836Z,0.28
2019-03-17T19:56:15.468Z,0.57
2019-03-17T19:58:44.168Z,0.90
2019-03-17T20:01:13.758Z,0.30
2019-03-17T20:03:42.444Z,0.47
2019-03-17T20:06:11.494Z,0.30
2019-03-17T20:08:40.137Z,0.30
2019-03-17T20:11:08.903Z,0.20
2019-03-17T20:13:37.555Z,0.30
2019-03-17T20:16:06.170Z,0.30
2019-03-17T20:18:34.783Z,0.20
2019-03-17T20:21:03.412Z,0.17
2019-03-17T20:23:32.060Z,0.98
2019-03-17T20:26:00.680Z,0.23
2019-03-17T20:28:29.311Z,0.33
2019-03-17T20:30:57.943Z,0.30
2019-03-17T20:33:26.619Z,0.50
2019-03-17T20:35:55.230Z,0.20
2019-03-17T20:38:24.099Z,0.20
2019-03-17T20:40:52.747Z,0.40
2019-03-17T20:43:34.112Z,0.55
2019-03-17T20:45:51.636Z,0.20
2019-03-17T20:48:21.985Z,0.23
2019-03-17T20:50:50.967Z,0.70
2019-03-17T20:53:19.583Z,0.47
2019-03-17T20:55:48.214Z,0.40
2019-03-17T20:58:16.859Z,0.30
2019-03-17T21:00:45.486Z,0.50
2019-03-17T21:03:14.295Z,0.70
2019-03-17T21:05:42.950Z,0.30
2019-03-17T21:08:11.966Z,0.40
2019-03-17T21:10:40.595Z,0.10
2019-03-17T21:13:09.221Z,0.40
2019-03-17T21:15:37.839Z,0.47
2019-03-17T21:18:06.463Z,0.20
2019-03-17T21:20:35.111Z,0.30
2019-03-17T21:25:29.299Z,0.55
2019-03-17T21:27:58.512Z,0.30
2019-03-17T21:30:27.247Z,0.20
2019-03-17T21:32:55.871Z,0.20
2019-03-17T21:35:24.489Z,0.30
2019-03-17T21:37:53.181Z,0.20
2019-03-17T21:40:21.768Z,0.20
2019-03-17T21:42:50.719Z,0.43
2019-03-17T21:45:19.362Z,0.55
2019-03-17T21:47:47.979Z,0.53
2019-03-17T21:50:16.595Z,0.10
2019-03-17T21:52:45.295Z,0.13
2019-03-17T21:55:14.535Z,0.57
2019-03-17T21:57:44.145Z,0.47
2019-03-17T22:00:13.577Z,0.10
2019-03-17T22:02:43.399Z,0.68
2019-03-17T22:05:12.176Z,0.40
2019-03-17T22:07:49.719Z,0.30
2019-03-17T22:10:11.396Z,0.25
2019-03-17T22:12:40.633Z,0.45
2019-03-17T22:15:09.793Z,0.45
2019-03-17T22:17:38.423Z,0.57
2019-03-17T22:20:07.355Z,0.60
2019-03-17T22:22:36.071Z,0.10
2019-03-17T22:25:04.951Z,0.20
2019-03-17T22:27:34.115Z,0.10
2019-03-17T22:30:02.759Z,0.50
2019-03-17T22:32:31.400Z,0.20
2019-03-17T22:35:00.044Z,0.45
2019-03-17T22:37:28.668Z,0.20
2019-03-17T22:39:57.287Z,0.80
2019-03-17T22:42:25.915Z,0.10
2019-03-17T22:44:54.550Z,0.20
2019-03-17T22:47:23.170Z,0.78
2019-03-17T22:49:51.790Z,0.65
2019-03-17T22:52:20.413Z,0.40
2019-03-17T22:54:49.099Z,0.30
2019-03-17T22:57:17.715Z,0.50
2019-03-17T22:59:46.333Z,0.50
2019-03-17T23:02:14.990Z,0.77
2019-03-17T23:04:43.991Z,0.65
2019-03-17T23:07:12.622Z,0.47
2019-03-17T23:09:41.271Z,1.00
2019-03-17T23:12:09.995Z,0.93
2019-03-17T23:14:40.263Z,0.20
2019-03-17T23:17:08.903Z,0.40
2019-03-17T23:19:37.515Z,0.37
2019-03-17T23:22:06.127Z,0.20
2019-03-17T23:24:34.765Z,0.60
2019-03-17T23:27:03.381Z,0.83
2019-03-17T23:29:32.029Z,0.33
2019-03-17T23:32:00.751Z,1.20
2019-03-17T23:34:30.351Z,0.33
2019-03-17T23:36:59.086Z,0.30
2019-03-17T23:39:27.699Z,0.20
2019-03-17T23:41:56.975Z,1.20
2019-03-17T23:44:25.610Z,0.60
2019-03-17T23:46:54.327Z,0.55
2019-03-17T23:49:22.934Z,0.42
2019-03-17T23:51:51.631Z,0.40
2019-03-17T23:54:20.247Z,0.60
2019-03-17T23:56:48.875Z,1.00
2019-03-17T23:59:17.578Z,0.37
